sensor_id;sensor_type;location;lat;lon;timestamp;temperature;humidity
13354;DHT22;6746;50.892;4.064;2023-12-20T00:01:29;6.40;99.90
13354;DHT22;6746;50.892;4.064;2023-12-20T00:04:12;6.30;99.90
13354;DHT22;6746;50.892;4.064;2023-12-20T00:06:50;6.40;99.90
13354;DHT22;6746;50.892;4.064;2023-12-20T00:09:38;6.40;99.90
13354;DHT22;6746;50.892;4.064;2023-12-20T00:12:26;6.30;99.90
13354;DHT22;6746;50.892;4.064;2023-12-20T00:15:14;6.30;99.90
13354;DHT22;6746;50.892;4.064;2023-12-20T00:18:02;6.20;99.90
13354;DHT22;6746;50.892;4.064;2023-12-20T00:20:46;6.10;99.90
13354;DHT22;6746;50.892;4.064;2023-12-20T00:23:24;6.10;99.90
13354;DHT22;6746;50.892;4.064;2023-12-20T00:26:05;6.10;99.90
13354;DHT22;6746;50.892;4.064;2023-12-20T00:28:43;6.10;99.90
13354;DHT22;6746;50.892;4.064;2023-12-20T00:31:26;6.10;99.90
13354;DHT22;6746;50.892;4.064;2023-12-20T00:34:05;6.10;99.90
13354;DHT22;6746;50.892;4.064;2023-12-20T00:36:43;6.10;99.90
13354;DHT22;6746;50.892;4.064;2023-12-20T00:39:21;6.10;99.90
13354;DHT22;6746;50.892;4.064;2023-12-20T00:42:05;6.20;99.90
13354;DHT22;6746;50.892;4.064;2023-12-20T00:44:43;6.20;99.90
13354;DHT22;6746;50.892;4.064;2023-12-20T00:47:29;6.20;99.90
13354;DHT22;6746;50.892;4.064;2023-12-20T00:50:07;6.20;99.90
13354;DHT22;6746;50.892;4.064;2023-12-20T00:52:53;6.20;99.90
13354;DHT22;6746;50.892;4.064;2023-12-20T00:55:32;6.20;99.90
13354;DHT22;6746;50.892;4.064;2023-12-20T00:58:12;6.20;99.90
13354;DHT22;6746;50.892;4.064;2023-12-20T01:00:51;6.20;99.90
13354;DHT22;6746;50.892;4.064;2023-12-20T01:03:31;6.20;99.90
13354;DHT22;6746;50.892;4.064;2023-12-20T01:06:09;6.20;99.90
13354;DHT22;6746;50.892;4.064;2023-12-20T01:08:50;6.20;99.90
13354;DHT22;6746;50.892;4.064;2023-12-20T01:11:28;6.20;99.90
13354;DHT22;6746;50.892;4.064;2023-12-20T01:14:16;6.20;99.90
13354;DHT22;6746;50.892;4.064;2023-12-20T01:16:57;6.10;99.90
13354;DHT22;6746;50.892;4.064;2023-12-20T01:19:35;6.10;99.90
13354;DHT22;6746;50.892;4.064;2023-12-20T01:22:23;6.10;99.90
13354;DHT22;6746;50.892;4.064;2023-12-20T01:25:09;6.20;99.90
13354;DHT22;6746;50.892;4.064;2023-12-20T01:27:48;6.10;99.90
13354;DHT22;6746;50.892;4.064;2023-12-20T01:30:36;6.10;99.90
13354;DHT22;6746;50.892;4.064;2023-12-20T01:33:24;6.10;99.90
13354;DHT22;6746;50.892;4.064;2023-12-20T01:36:12;6.10;99.90
13354;DHT22;6746;50.892;4.064;2023-12-20T01:39:00;6.10;99.90
13354;DHT22;6746;50.892;4.064;2023-12-20T01:41:44;6.10;99.90
13354;DHT22;6746;50.892;4.064;2023-12-20T01:44:22;6.10;99.90
13354;DHT22;6746;50.892;4.064;2023-12-20T01:47:10;6.10;99.90
13354;DHT22;6746;50.892;4.064;2023-12-20T01:49:49;6.10;99.90
13354;DHT22;6746;50.892;4.064;2023-12-20T01:52:27;6.10;99.90
13354;DHT22;6746;50.892;4.064;2023-12-20T01:55:05;6.20;99.90
13354;DHT22;6746;50.892;4.064;2023-12-20T01:57:43;6.20;99.90
13354;DHT22;6746;50.892;4.064;2023-12-20T02:00:25;6.20;99.90
13354;DHT22;6746;50.892;4.064;2023-12-20T02:03:02;6.20;99.90
13354;DHT22;6746;50.892;4.064;2023-12-20T02:05:45;6.30;99.90
13354;DHT22;6746;50.892;4.064;2023-12-20T02:08:24;6.30;99.90
13354;DHT22;6746;50.892;4.064;2023-12-20T02:11:02;6.30;99.90
13354;DHT22;6746;50.892;4.064;2023-12-20T02:13:40;6.30;99.90
13354;DHT22;6746;50.892;4.064;2023-12-20T02:16:28;6.30;99.90
13354;DHT22;6746;50.892;4.064;2023-12-20T02:19:16;6.30;99.90
13354;DHT22;6746;50.892;4.064;2023-12-20T02:22:08;6.40;99.90
13354;DHT22;6746;50.892;4.064;2023-12-20T02:24:55;6.40;99.90
13354;DHT22;6746;50.892;4.064;2023-12-20T02:27:44;6.40;99.90
13354;DHT22;6746;50.892;4.064;2023-12-20T02:30:30;6.40;99.90
13354;DHT22;6746;50.892;4.064;2023-12-20T02:33:10;6.50;99.90
13354;DHT22;6746;50.892;4.064;2023-12-20T02:35:47;6.50;99.90
13354;DHT22;6746;50.892;4.064;2023-12-20T02:38:25;6.60;99.90
13354;DHT22;6746;50.892;4.064;2023-12-20T02:41:11;6.60;99.90
13354;DHT22;6746;50.892;4.064;2023-12-20T02:43:50;6.60;99.90
13354;DHT22;6746;50.892;4.064;2023-12-20T02:46:31;6.60;99.90
13354;DHT22;6746;50.892;4.064;2023-12-20T02:49:09;6.70;99.90
13354;DHT22;6746;50.892;4.064;2023-12-20T02:51:47;6.70;99.90
13354;DHT22;6746;50.892;4.064;2023-12-20T02:54:26;6.70;99.90
13354;DHT22;6746;50.892;4.064;2023-12-20T02:57:04;6.80;99.90
13354;DHT22;6746;50.892;4.064;2023-12-20T02:59:42;6.80;99.90
13354;DHT22;6746;50.892;4.064;2023-12-20T03:02:25;6.80;99.90
13354;DHT22;6746;50.892;4.064;2023-12-20T03:05:04;6.80;99.90
13354;DHT22;6746;50.892;4.064;2023-12-20T03:07:50;6.90;99.90
13354;DHT22;6746;50.892;4.064;2023-12-20T03:10:29;6.90;99.90
13354;DHT22;6746;50.892;4.064;2023-12-20T03:13:17;6.90;99.90
13354;DHT22;6746;50.892;4.064;2023-12-20T03:15:55;6.90;99.90
13354;DHT22;6746;50.892;4.064;2023-12-20T03:18:33;6.90;99.90
13354;DHT22;6746;50.892;4.064;2023-12-20T03:21:16;6.90;99.90
13354;DHT22;6746;50.892;4.064;2023-12-20T03:23:54;6.90;99.90
13354;DHT22;6746;50.892;4.064;2023-12-20T03:26:38;6.80;99.90
13354;DHT22;6746;50.892;4.064;2023-12-20T03:29:16;6.80;99.90
13354;DHT22;6746;50.892;4.064;2023-12-20T03:31:57;6.80;99.90
13354;DHT22;6746;50.892;4.064;2023-12-20T03:34:35;6.70;99.90
13354;DHT22;6746;50.892;4.064;2023-12-20T03:37:23;6.70;99.90
13354;DHT22;6746;50.892;4.064;2023-12-20T03:40:11;6.60;99.90
13354;DHT22;6746;50.892;4.064;2023-12-20T03:42:59;6.60;99.90
13354;DHT22;6746;50.892;4.064;2023-12-20T03:45:41;6.60;99.90
13354;DHT22;6746;50.892;4.064;2023-12-20T03:48:19;6.70;99.90
13354;DHT22;6746;50.892;4.064;2023-12-20T03:51:07;6.70;99.90
13354;DHT22;6746;50.892;4.064;2023-12-20T03:53:45;6.70;99.90
13354;DHT22;6746;50.892;4.064;2023-12-20T03:56:23;6.70;99.90
13354;DHT22;6746;50.892;4.064;2023-12-20T03:59:07;6.60;99.90
13354;DHT22;6746;50.892;4.064;2023-12-20T04:01:45;6.60;99.90
13354;DHT22;6746;50.892;4.064;2023-12-20T04:04:28;6.50;99.90
13354;DHT22;6746;50.892;4.064;2023-12-20T04:07:06;6.50;99.90
13354;DHT22;6746;50.892;4.064;2023-12-20T04:09:45;6.40;99.90
13354;DHT22;6746;50.892;4.064;2023-12-20T04:12:23;6.30;99.90
13354;DHT22;6746;50.892;4.064;2023-12-20T04:15:01;6.30;99.90
13354;DHT22;6746;50.892;4.064;2023-12-20T04:17:39;6.20;99.90
13354;DHT22;6746;50.892;4.064;2023-12-20T04:20:25;6.30;99.90
13354;DHT22;6746;50.892;4.064;2023-12-20T04:23:04;6.30;99.90
13354;DHT22;6746;50.892;4.064;2023-12-20T04:25:47;6.30;99.90
13354;DHT22;6746;50.892;4.064;2023-12-20T04:28:25;6.30;99.90
13354;DHT22;6746;50.892;4.064;2023-12-20T04:31:06;6.40;99.90
13354;DHT22;6746;50.892;4.064;2023-12-20T04:33:44;6.40;99.90
13354;DHT22;6746;50.892;4.064;2023-12-20T04:36:27;6.40;99.90
13354;DHT22;6746;50.892;4.064;2023-12-20T04:39:05;6.40;99.90
13354;DHT22;6746;50.892;4.064;2023-12-20T04:41:51;6.50;99.90
13354;DHT22;6746;50.892;4.064;2023-12-20T04:44:30;6.50;99.90
13354;DHT22;6746;50.892;4.064;2023-12-20T04:47:18;6.50;99.90
13354;DHT22;6746;50.892;4.064;2023-12-20T04:49:56;6.40;99.90
13354;DHT22;6746;50.892;4.064;2023-12-20T04:52:35;6.30;99.90
13354;DHT22;6746;50.892;4.064;2023-12-20T04:55:16;6.20;99.90
13354;DHT22;6746;50.892;4.064;2023-12-20T04:57:54;6.20;99.90
13354;DHT22;6746;50.892;4.064;2023-12-20T05:00:32;6.20;99.90
13354;DHT22;6746;50.892;4.064;2023-12-20T05:03:10;6.20;99.90
13354;DHT22;6746;50.892;4.064;2023-12-20T05:05:51;6.10;99.90
13354;DHT22;6746;50.892;4.064;2023-12-20T05:08:32;6.10;99.90
13354;DHT22;6746;50.892;4.064;2023-12-20T05:11:10;6.10;99.90
13354;DHT22;6746;50.892;4.064;2023-12-20T05:13:48;6.10;99.90
13354;DHT22;6746;50.892;4.064;2023-12-20T05:16:27;6.00;99.90
13354;DHT22;6746;50.892;4.064;2023-12-20T05:19:05;6.00;99.90
13354;DHT22;6746;50.892;4.064;2023-12-20T05:21:43;5.90;99.90
13354;DHT22;6746;50.892;4.064;2023-12-20T05:24:22;6.00;99.90
13354;DHT22;6746;50.892;4.064;2023-12-20T05:27:00;5.90;99.90
13354;DHT22;6746;50.892;4.064;2023-12-20T05:29:38;6.00;99.90
13354;DHT22;6746;50.892;4.064;2023-12-20T05:32:19;5.90;99.90
13354;DHT22;6746;50.892;4.064;2023-12-20T05:34:57;5.90;99.90
13354;DHT22;6746;50.892;4.064;2023-12-20T05:37:41;5.90;99.90
13354;DHT22;6746;50.892;4.064;2023-12-20T05:40:19;5.90;99.90
13354;DHT22;6746;50.892;4.064;2023-12-20T05:42:57;5.80;99.90
13354;DHT22;6746;50.892;4.064;2023-12-20T05:45:35;5.80;99.90
13354;DHT22;6746;50.892;4.064;2023-12-20T05:48:16;5.80;99.90
13354;DHT22;6746;50.892;4.064;2023-12-20T05:50:55;5.80;99.90
13354;DHT22;6746;50.892;4.064;2023-12-20T05:53:38;5.70;99.90
13354;DHT22;6746;50.892;4.064;2023-12-20T05:56:16;5.70;99.90
13354;DHT22;6746;50.892;4.064;2023-12-20T05:58:54;5.70;99.90
13354;DHT22;6746;50.892;4.064;2023-12-20T06:01:32;5.80;99.90
13354;DHT22;6746;50.892;4.064;2023-12-20T06:04:13;5.90;99.90
13354;DHT22;6746;50.892;4.064;2023-12-20T06:06:51;5.90;99.90
13354;DHT22;6746;50.892;4.064;2023-12-20T06:09:32;6.00;99.90
13354;DHT22;6746;50.892;4.064;2023-12-20T06:12:10;6.10;99.90
13354;DHT22;6746;50.892;4.064;2023-12-20T06:14:56;6.10;99.90
13354;DHT22;6746;50.892;4.064;2023-12-20T06:17:35;6.20;99.90
13354;DHT22;6746;50.892;4.064;2023-12-20T06:20:13;6.20;99.90
13354;DHT22;6746;50.892;4.064;2023-12-20T06:22:51;6.10;99.90
13354;DHT22;6746;50.892;4.064;2023-12-20T06:25:30;6.10;99.90
13354;DHT22;6746;50.892;4.064;2023-12-20T06:28:08;6.00;99.90
13354;DHT22;6746;50.892;4.064;2023-12-20T06:30:49;6.00;99.90
13354;DHT22;6746;50.892;4.064;2023-12-20T06:33:27;5.90;99.90
13354;DHT22;6746;50.892;4.064;2023-12-20T06:36:15;5.80;99.90
13354;DHT22;6746;50.892;4.064;2023-12-20T06:39:04;5.80;99.90
13354;DHT22;6746;50.892;4.064;2023-12-20T06:41:52;5.70;99.90
13354;DHT22;6746;50.892;4.064;2023-12-20T06:44:40;5.60;99.90
13354;DHT22;6746;50.892;4.064;2023-12-20T06:47:28;5.60;99.90
13354;DHT22;6746;50.892;4.064;2023-12-20T06:50:16;5.50;99.90
13354;DHT22;6746;50.892;4.064;2023-12-20T06:53:00;5.50;99.90
13354;DHT22;6746;50.892;4.064;2023-12-20T06:55:39;5.50;99.90
13354;DHT22;6746;50.892;4.064;2023-12-20T06:58:20;5.50;99.90
13354;DHT22;6746;50.892;4.064;2023-12-20T07:00:59;5.50;99.90
13354;DHT22;6746;50.892;4.064;2023-12-20T07:03:46;5.50;99.90
13354;DHT22;6746;50.892;4.064;2023-12-20T07:06:34;5.50;99.90
13354;DHT22;6746;50.892;4.064;2023-12-20T07:09:15;5.40;99.90
13354;DHT22;6746;50.892;4.064;2023-12-20T07:11:53;5.40;99.90
13354;DHT22;6746;50.892;4.064;2023-12-20T07:14:32;5.40;99.90
13354;DHT22;6746;50.892;4.064;2023-12-20T07:17:10;5.40;99.90
13354;DHT22;6746;50.892;4.064;2023-12-20T07:19:56;5.40;99.90
13354;DHT22;6746;50.892;4.064;2023-12-20T07:22:35;5.30;99.90
13354;DHT22;6746;50.892;4.064;2023-12-20T07:25:23;5.30;99.90
13354;DHT22;6746;50.892;4.064;2023-12-20T07:28:01;5.30;99.90
13354;DHT22;6746;50.892;4.064;2023-12-20T07:30:39;5.20;99.90
13354;DHT22;6746;50.892;4.064;2023-12-20T07:33:18;5.20;99.90
13354;DHT22;6746;50.892;4.064;2023-12-20T07:35:56;5.20;99.90
13354;DHT22;6746;50.892;4.064;2023-12-20T07:38:28;5.20;99.90
13354;DHT22;6746;50.892;4.064;2023-12-20T07:40:57;5.20;99.90
13354;DHT22;6746;50.892;4.064;2023-12-20T07:43:34;5.20;99.90
13354;DHT22;6746;50.892;4.064;2023-12-20T07:46:06;5.30;99.90
13354;DHT22;6746;50.892;4.064;2023-12-20T07:48:41;5.30;99.90
13354;DHT22;6746;50.892;4.064;2023-12-20T07:51:10;5.30;99.90
13354;DHT22;6746;50.892;4.064;2023-12-20T07:53:39;5.30;99.90
13354;DHT22;6746;50.892;4.064;2023-12-20T07:56:17;5.20;99.90
13354;DHT22;6746;50.892;4.064;2023-12-20T07:58:50;5.30;99.90
13354;DHT22;6746;50.892;4.064;2023-12-20T08:01:21;5.30;99.90
13354;DHT22;6746;50.892;4.064;2023-12-20T08:03:58;5.30;99.90
13354;DHT22;6746;50.892;4.064;2023-12-20T08:06:26;5.30;99.90
13354;DHT22;6746;50.892;4.064;2023-12-20T08:09:04;5.40;99.90
13354;DHT22;6746;50.892;4.064;2023-12-20T08:11:46;5.40;99.90
13354;DHT22;6746;50.892;4.064;2023-12-20T08:14:14;5.40;99.90
13354;DHT22;6746;50.892;4.064;2023-12-20T08:16:43;5.40;99.90
13354;DHT22;6746;50.892;4.064;2023-12-20T08:19:12;5.40;99.90
13354;DHT22;6746;50.892;4.064;2023-12-20T08:21:41;5.40;99.90
13354;DHT22;6746;50.892;4.064;2023-12-20T08:24:18;5.40;99.90
13354;DHT22;6746;50.892;4.064;2023-12-20T08:26:47;5.40;99.90
13354;DHT22;6746;50.892;4.064;2023-12-20T08:29:25;5.50;99.90
13354;DHT22;6746;50.892;4.064;2023-12-20T08:32:03;5.50;99.90
13354;DHT22;6746;50.892;4.064;2023-12-20T08:34:34;5.50;99.90
13354;DHT22;6746;50.892;4.064;2023-12-20T08:37:05;5.50;99.90
13354;DHT22;6746;50.892;4.064;2023-12-20T08:39:45;5.60;99.90
13354;DHT22;6746;50.892;4.064;2023-12-20T08:42:16;5.60;99.90
13354;DHT22;6746;50.892;4.064;2023-12-20T08:44:50;5.70;99.90
13354;DHT22;6746;50.892;4.064;2023-12-20T08:47:21;5.70;99.90
13354;DHT22;6746;50.892;4.064;2023-12-20T08:49:49;5.70;99.90
13354;DHT22;6746;50.892;4.064;2023-12-20T08:52:18;5.80;99.90
13354;DHT22;6746;50.892;4.064;2023-12-20T08:54:55;5.80;99.90
13354;DHT22;6746;50.892;4.064;2023-12-20T08:57:24;5.90;99.90
13354;DHT22;6746;50.892;4.064;2023-12-20T09:00:02;6.00;99.90
13354;DHT22;6746;50.892;4.064;2023-12-20T09:02:31;6.00;99.90
13354;DHT22;6746;50.892;4.064;2023-12-20T09:05:00;6.10;99.90
13354;DHT22;6746;50.892;4.064;2023-12-20T09:07:38;6.10;99.90
13354;DHT22;6746;50.892;4.064;2023-12-20T09:10:15;6.20;99.90
13354;DHT22;6746;50.892;4.064;2023-12-20T09:12:43;6.20;99.90
13354;DHT22;6746;50.892;4.064;2023-12-20T09:15:20;6.30;99.90
13354;DHT22;6746;50.892;4.064;2023-12-20T09:17:49;6.30;99.90
13354;DHT22;6746;50.892;4.064;2023-12-20T09:20:27;6.40;99.90
13354;DHT22;6746;50.892;4.064;2023-12-20T09:23:05;6.50;99.90
13354;DHT22;6746;50.892;4.064;2023-12-20T09:25:53;6.60;99.90
13354;DHT22;6746;50.892;4.064;2023-12-20T09:28:31;6.70;99.90
13354;DHT22;6746;50.892;4.064;2023-12-20T09:31:13;6.80;99.90
13354;DHT22;6746;50.892;4.064;2023-12-20T09:33:41;6.90;99.90
13354;DHT22;6746;50.892;4.064;2023-12-20T09:36:09;7.00;99.90
13354;DHT22;6746;50.892;4.064;2023-12-20T09:38:39;7.10;99.90
13354;DHT22;6746;50.892;4.064;2023-12-20T09:41:17;7.10;99.90
13354;DHT22;6746;50.892;4.064;2023-12-20T09:43:55;7.20;99.90
13354;DHT22;6746;50.892;4.064;2023-12-20T09:46:34;7.20;99.90
13354;DHT22;6746;50.892;4.064;2023-12-20T09:49:10;7.30;99.90
13354;DHT22;6746;50.892;4.064;2023-12-20T09:51:50;7.40;99.90
13354;DHT22;6746;50.892;4.064;2023-12-20T09:54:39;7.40;99.90
13354;DHT22;6746;50.892;4.064;2023-12-20T09:57:10;7.40;99.90
13354;DHT22;6746;50.892;4.064;2023-12-20T09:59:41;7.40;99.90
13354;DHT22;6746;50.892;4.064;2023-12-20T10:02:20;7.40;99.90
13354;DHT22;6746;50.892;4.064;2023-12-20T10:04:59;7.40;99.90
13354;DHT22;6746;50.892;4.064;2023-12-20T10:07:35;7.60;99.90
13354;DHT22;6746;50.892;4.064;2023-12-20T10:10:04;7.60;99.90
13354;DHT22;6746;50.892;4.064;2023-12-20T10:13:05;7.70;99.90
13354;DHT22;6746;50.892;4.064;2023-12-20T10:15:23;7.70;99.90
13354;DHT22;6746;50.892;4.064;2023-12-20T10:17:52;7.80;99.90
13354;DHT22;6746;50.892;4.064;2023-12-20T10:20:20;7.80;99.90
13354;DHT22;6746;50.892;4.064;2023-12-20T10:22:49;7.90;99.90
13354;DHT22;6746;50.892;4.064;2023-12-20T10:25:28;8.00;99.90
13354;DHT22;6746;50.892;4.064;2023-12-20T10:28:09;8.00;99.90
13354;DHT22;6746;50.892;4.064;2023-12-20T10:30:48;8.00;99.90
13354;DHT22;6746;50.892;4.064;2023-12-20T10:33:30;8.10;99.90
13354;DHT22;6746;50.892;4.064;2023-12-20T10:36:06;8.10;99.90
13354;DHT22;6746;50.892;4.064;2023-12-20T10:38:45;8.20;99.90
13354;DHT22;6746;50.892;4.064;2023-12-20T10:41:26;8.20;99.90
13354;DHT22;6746;50.892;4.064;2023-12-20T10:44:04;8.20;99.90
13354;DHT22;6746;50.892;4.064;2023-12-20T10:46:35;8.30;99.90
13354;DHT22;6746;50.892;4.064;2023-12-20T10:49:03;8.30;99.90
13354;DHT22;6746;50.892;4.064;2023-12-20T10:51:42;8.30;99.90
13354;DHT22;6746;50.892;4.064;2023-12-20T10:54:30;8.30;99.90
13354;DHT22;6746;50.892;4.064;2023-12-20T10:57:08;8.30;99.90
13354;DHT22;6746;50.892;4.064;2023-12-20T10:59:46;8.30;99.90
13354;DHT22;6746;50.892;4.064;2023-12-20T11:02:15;8.30;99.90
13354;DHT22;6746;50.892;4.064;2023-12-20T11:05:33;8.40;99.90
13354;DHT22;6746;50.892;4.064;2023-12-20T11:07:50;8.40;99.90
13354;DHT22;6746;50.892;4.064;2023-12-20T11:10:33;8.40;99.90
13354;DHT22;6746;50.892;4.064;2023-12-20T11:13:10;8.40;99.90
13354;DHT22;6746;50.892;4.064;2023-12-20T11:15:48;8.50;99.90
13354;DHT22;6746;50.892;4.064;2023-12-20T11:18:28;8.50;99.90
13354;DHT22;6746;50.892;4.064;2023-12-20T11:20:51;8.50;99.90
13354;DHT22;6746;50.892;4.064;2023-12-20T11:23:27;8.50;99.90
13354;DHT22;6746;50.892;4.064;2023-12-20T11:25:56;8.50;99.90
13354;DHT22;6746;50.892;4.064;2023-12-20T11:28:47;8.50;99.90
13354;DHT22;6746;50.892;4.064;2023-12-20T11:31:29;8.60;99.90
13354;DHT22;6746;50.892;4.064;2023-12-20T11:34:13;8.60;99.90
13354;DHT22;6746;50.892;4.064;2023-12-20T11:36:44;8.70;99.90
13354;DHT22;6746;50.892;4.064;2023-12-20T11:39:18;8.70;99.90
13354;DHT22;6746;50.892;4.064;2023-12-20T11:41:48;8.70;99.90
13354;DHT22;6746;50.892;4.064;2023-12-20T11:44:17;8.80;99.90
13354;DHT22;6746;50.892;4.064;2023-12-20T11:46:55;8.80;99.90
13354;DHT22;6746;50.892;4.064;2023-12-20T11:49:26;8.80;99.90
13354;DHT22;6746;50.892;4.064;2023-12-20T11:51:55;8.80;99.90
13354;DHT22;6746;50.892;4.064;2023-12-20T11:54:34;8.80;99.90
13354;DHT22;6746;50.892;4.064;2023-12-20T11:57:22;8.80;99.90
13354;DHT22;6746;50.892;4.064;2023-12-20T12:00:10;8.90;99.90
13354;DHT22;6746;50.892;4.064;2023-12-20T12:03:00;9.00;99.90
13354;DHT22;6746;50.892;4.064;2023-12-20T12:05:38;9.10;99.90
13354;DHT22;6746;50.892;4.064;2023-12-20T12:08:10;9.20;99.90
13354;DHT22;6746;50.892;4.064;2023-12-20T12:10:38;9.30;99.90
13354;DHT22;6746;50.892;4.064;2023-12-20T12:13:17;9.30;99.90
13354;DHT22;6746;50.892;4.064;2023-12-20T12:15:55;9.30;99.90
13354;DHT22;6746;50.892;4.064;2023-12-20T12:18:43;9.30;99.90
13354;DHT22;6746;50.892;4.064;2023-12-20T12:21:31;9.30;99.90
13354;DHT22;6746;50.892;4.064;2023-12-20T12:24:09;9.20;99.90
13354;DHT22;6746;50.892;4.064;2023-12-20T12:26:50;9.20;99.90
13354;DHT22;6746;50.892;4.064;2023-12-20T12:29:38;9.20;99.90
13354;DHT22;6746;50.892;4.064;2023-12-20T12:32:16;9.10;99.90
13354;DHT22;6746;50.892;4.064;2023-12-20T12:34:50;9.10;99.90
13354;DHT22;6746;50.892;4.064;2023-12-20T12:37:28;9.10;99.90
13354;DHT22;6746;50.892;4.064;2023-12-20T12:40:07;9.20;99.90
13354;DHT22;6746;50.892;4.064;2023-12-20T12:42:35;9.20;99.90
13354;DHT22;6746;50.892;4.064;2023-12-20T12:45:04;9.20;99.90
13354;DHT22;6746;50.892;4.064;2023-12-20T12:47:42;9.30;99.90
13354;DHT22;6746;50.892;4.064;2023-12-20T12:50:21;9.30;99.90
13354;DHT22;6746;50.892;4.064;2023-12-20T12:53:09;9.30;99.90
13354;DHT22;6746;50.892;4.064;2023-12-20T12:55:56;9.40;99.90
13354;DHT22;6746;50.892;4.064;2023-12-20T12:58:33;9.40;99.90
13354;DHT22;6746;50.892;4.064;2023-12-20T13:01:02;9.50;99.90
13354;DHT22;6746;50.892;4.064;2023-12-20T13:03:40;9.60;99.90
13354;DHT22;6746;50.892;4.064;2023-12-20T13:06:17;9.70;99.90
13354;DHT22;6746;50.892;4.064;2023-12-20T13:08:45;9.80;99.90
13354;DHT22;6746;50.892;4.064;2023-12-20T13:11:18;9.80;99.90
13354;DHT22;6746;50.892;4.064;2023-12-20T13:13:47;9.80;99.90
13354;DHT22;6746;50.892;4.064;2023-12-20T13:16:24;9.90;99.90
13354;DHT22;6746;50.892;4.064;2023-12-20T13:18:52;10.00;99.90
13354;DHT22;6746;50.892;4.064;2023-12-20T13:21:21;10.00;99.90
13354;DHT22;6746;50.892;4.064;2023-12-20T13:23:50;10.00;99.90
13354;DHT22;6746;50.892;4.064;2023-12-20T13:26:28;10.00;99.90
13354;DHT22;6746;50.892;4.064;2023-12-20T13:29:06;10.10;99.90
13354;DHT22;6746;50.892;4.064;2023-12-20T13:31:35;10.10;99.90
13354;DHT22;6746;50.892;4.064;2023-12-20T13:34:03;10.10;99.90
13354;DHT22;6746;50.892;4.064;2023-12-20T13:36:42;10.00;99.90
13354;DHT22;6746;50.892;4.064;2023-12-20T13:39:16;10.10;99.90
13354;DHT22;6746;50.892;4.064;2023-12-20T13:41:45;10.10;99.90
13354;DHT22;6746;50.892;4.064;2023-12-20T13:44:14;10.10;99.90
13354;DHT22;6746;50.892;4.064;2023-12-20T13:46:43;10.10;99.90
13354;DHT22;6746;50.892;4.064;2023-12-20T13:49:21;10.00;99.90
13354;DHT22;6746;50.892;4.064;2023-12-20T13:51:58;10.00;99.90
13354;DHT22;6746;50.892;4.064;2023-12-20T13:54:26;10.00;99.90
13354;DHT22;6746;50.892;4.064;2023-12-20T13:57:05;10.00;99.90
13354;DHT22;6746;50.892;4.064;2023-12-20T13:59:34;9.90;99.90
13354;DHT22;6746;50.892;4.064;2023-12-20T14:02:12;9.90;99.90
13354;DHT22;6746;50.892;4.064;2023-12-20T14:04:43;9.90;99.90
13354;DHT22;6746;50.892;4.064;2023-12-20T14:07:12;9.90;99.90
13354;DHT22;6746;50.892;4.064;2023-12-20T14:09:53;9.90;99.90
13354;DHT22;6746;50.892;4.064;2023-12-20T14:12:31;9.80;99.90
13354;DHT22;6746;50.892;4.064;2023-12-20T14:15:09;9.80;99.90
13354;DHT22;6746;50.892;4.064;2023-12-20T14:17:48;9.90;99.90
13354;DHT22;6746;50.892;4.064;2023-12-20T14:20:18;9.90;99.90
13354;DHT22;6746;50.892;4.064;2023-12-20T14:22:48;9.90;99.90
13354;DHT22;6746;50.892;4.064;2023-12-20T14:25:17;9.90;99.90
13354;DHT22;6746;50.892;4.064;2023-12-20T14:27:56;9.90;99.90
13354;DHT22;6746;50.892;4.064;2023-12-20T14:30:34;9.80;99.90
13354;DHT22;6746;50.892;4.064;2023-12-20T14:33:12;9.70;99.90
13354;DHT22;6746;50.892;4.064;2023-12-20T14:35:51;9.70;99.90
13354;DHT22;6746;50.892;4.064;2023-12-20T14:38:32;9.70;99.90
13354;DHT22;6746;50.892;4.064;2023-12-20T14:41:01;9.70;99.90
13354;DHT22;6746;50.892;4.064;2023-12-20T14:43:39;9.70;99.90
13354;DHT22;6746;50.892;4.064;2023-12-20T14:46:17;9.80;99.90
13354;DHT22;6746;50.892;4.064;2023-12-20T14:49:05;9.80;99.90
13354;DHT22;6746;50.892;4.064;2023-12-20T14:51:43;9.80;99.90
13354;DHT22;6746;50.892;4.064;2023-12-20T14:54:10;9.80;99.90
13354;DHT22;6746;50.892;4.064;2023-12-20T14:56:48;9.80;99.90
13354;DHT22;6746;50.892;4.064;2023-12-20T14:59:26;9.80;99.90
13354;DHT22;6746;50.892;4.064;2023-12-20T15:01:54;9.80;99.90
13354;DHT22;6746;50.892;4.064;2023-12-20T15:04:23;9.80;99.90
13354;DHT22;6746;50.892;4.064;2023-12-20T15:07:02;9.80;99.90
13354;DHT22;6746;50.892;4.064;2023-12-20T15:09:38;9.80;99.90
13354;DHT22;6746;50.892;4.064;2023-12-20T15:12:09;9.80;99.90
13354;DHT22;6746;50.892;4.064;2023-12-20T15:14:40;9.80;99.90
13354;DHT22;6746;50.892;4.064;2023-12-20T15:17:09;9.80;99.90
13354;DHT22;6746;50.892;4.064;2023-12-20T15:19:43;9.80;99.90
13354;DHT22;6746;50.892;4.064;2023-12-20T15:22:12;9.80;99.90
13354;DHT22;6746;50.892;4.064;2023-12-20T15:24:50;9.80;99.90
13354;DHT22;6746;50.892;4.064;2023-12-20T15:27:29;9.80;99.90
13354;DHT22;6746;50.892;4.064;2023-12-20T15:30:07;9.80;99.90
13354;DHT22;6746;50.892;4.064;2023-12-20T15:32:38;9.80;99.90
13354;DHT22;6746;50.892;4.064;2023-12-20T15:35:07;9.80;99.90
13354;DHT22;6746;50.892;4.064;2023-12-20T15:37:39;9.80;99.90
13354;DHT22;6746;50.892;4.064;2023-12-20T15:40:08;9.80;99.90
13354;DHT22;6746;50.892;4.064;2023-12-20T15:42:49;9.80;99.90
13354;DHT22;6746;50.892;4.064;2023-12-20T15:45:28;9.80;99.90
13354;DHT22;6746;50.892;4.064;2023-12-20T15:48:06;9.80;99.90
13354;DHT22;6746;50.892;4.064;2023-12-20T15:50:44;9.80;99.90
13354;DHT22;6746;50.892;4.064;2023-12-20T15:53:35;9.70;99.90
13354;DHT22;6746;50.892;4.064;2023-12-20T15:56:20;9.70;99.90
13354;DHT22;6746;50.892;4.064;2023-12-20T15:58:49;9.70;99.90
13354;DHT22;6746;50.892;4.064;2023-12-20T16:01:18;9.70;99.90
13354;DHT22;6746;50.892;4.064;2023-12-20T16:03:59;9.70;99.90
13354;DHT22;6746;50.892;4.064;2023-12-20T16:06:37;9.70;99.90
13354;DHT22;6746;50.892;4.064;2023-12-20T16:09:16;9.80;99.90
13354;DHT22;6746;50.892;4.064;2023-12-20T16:11:54;9.70;99.90
13354;DHT22;6746;50.892;4.064;2023-12-20T16:14:32;9.80;99.90
13354;DHT22;6746;50.892;4.064;2023-12-20T16:17:10;9.80;99.90
13354;DHT22;6746;50.892;4.064;2023-12-20T16:19:53;9.90;99.90
13354;DHT22;6746;50.892;4.064;2023-12-20T16:22:32;9.90;99.90
13354;DHT22;6746;50.892;4.064;2023-12-20T16:25:18;9.90;99.90
13354;DHT22;6746;50.892;4.064;2023-12-20T16:27:58;9.90;99.90
13354;DHT22;6746;50.892;4.064;2023-12-20T16:30:36;9.80;99.90
13354;DHT22;6746;50.892;4.064;2023-12-20T16:33:15;9.90;99.90
13354;DHT22;6746;50.892;4.064;2023-12-20T16:35:56;9.90;99.90
13354;DHT22;6746;50.892;4.064;2023-12-20T16:38:34;9.90;99.90
13354;DHT22;6746;50.892;4.064;2023-12-20T16:41:22;9.80;99.90
13354;DHT22;6746;50.892;4.064;2023-12-20T16:44:10;9.80;99.90
13354;DHT22;6746;50.892;4.064;2023-12-20T16:46:58;9.80;99.90
13354;DHT22;6746;50.892;4.064;2023-12-20T16:49:46;9.80;99.90
13354;DHT22;6746;50.892;4.064;2023-12-20T16:52:35;9.70;99.90
13354;DHT22;6746;50.892;4.064;2023-12-20T16:55:13;9.80;99.90
13354;DHT22;6746;50.892;4.064;2023-12-20T16:57:52;9.70;99.90
13354;DHT22;6746;50.892;4.064;2023-12-20T17:00:39;9.70;99.90
13354;DHT22;6746;50.892;4.064;2023-12-20T17:03:27;9.80;99.90
13354;DHT22;6746;50.892;4.064;2023-12-20T17:06:15;9.80;99.90
13354;DHT22;6746;50.892;4.064;2023-12-20T17:08:54;9.80;99.90
13354;DHT22;6746;50.892;4.064;2023-12-20T17:11:32;9.80;99.90
13354;DHT22;6746;50.892;4.064;2023-12-20T17:14:20;9.80;99.90